Time;durP1;ratioP1;P1;durP2;ratioP2;P2;SDS_P1;SDS_P2;PMS_P1;PMS_P2;Temp;Humidity;BMP_temperature;BMP_pressure;BME280_temperature;BME280_humidity;BME280_pressure;Samples;Min_cycle;Max_cycle;Signal;HPM_P1;HPM_P2
2021/01/15 00:01:36;;;;;;;10.20;6.65;;;1.60;85.60;;;;;;5012766;28;20038;-55
2021/01/15 00:04:02;;;;;;;10.93;8.02;;;1.60;84.60;;;;;;5015750;28;20116;-53
2021/01/15 00:06:28;;;;;;;10.15;7.10;;;1.70;84.90;;;;;;5015830;28;20042;-54
2021/01/15 00:08:55;;;;;;;10.73;7.60;;;1.70;85.80;;;;;;5015558;28;20042;-55
2021/01/15 00:11:24;;;;;;;10.90;7.80;;;1.70;85.70;;;;;;5015880;28;20385;-54
2021/01/15 00:13:50;;;;;;;13.57;8.45;;;1.60;85.20;;;;;;5015519;28;20084;-55
2021/01/15 00:16:22;;;;;;;12.75;7.70;;;1.70;85.00;;;;;;5015529;28;20045;-54
2021/01/15 00:18:49;;;;;;;11.00;7.65;;;1.70;85.40;;;;;;5015637;28;20069;-55
2021/01/15 00:21:19;;;;;;;12.07;7.72;;;1.70;85.20;;;;;;5015299;28;20045;-55
2021/01/15 00:23:44;;;;;;;10.15;7.55;;;1.70;84.70;;;;;;5015297;28;20050;-55
2021/01/15 00:26:18;;;;;;;10.95;7.70;;;1.70;85.40;;;;;;5015511;28;20053;-55
2021/01/15 00:28:45;;;;;;;13.45;8.27;;;1.80;85.10;;;;;;5015325;28;20563;-55
2021/01/15 00:31:10;;;;;;;10.90;7.97;;;1.80;84.60;;;;;;5015199;28;20050;-53
2021/01/15 00:33:36;;;;;;;11.73;8.35;;;1.80;84.60;;;;;;5015291;28;20456;-55
2021/01/15 00:36:03;;;;;;;11.77;8.02;;;1.80;85.70;;;;;;5015185;28;20045;-54
2021/01/15 00:38:28;;;;;;;13.57;7.80;;;1.80;85.00;;;;;;5014948;28;20045;-53
2021/01/15 00:41:03;;;;;;;11.88;8.07;;;1.80;84.60;;;;;;5015295;28;20056;-55
2021/01/15 00:43:29;;;;;;;14.75;8.63;;;1.80;84.90;;;;;;5015344;28;20501;-53
2021/01/15 00:45:55;;;;;;;14.27;8.30;;;1.90;85.60;;;;;;5015332;28;20431;-55
2021/01/15 00:48:21;;;;;;;11.30;8.10;;;1.80;85.90;;;;;;5014962;28;20046;-55
2021/01/15 00:50:47;;;;;;;12.18;8.68;;;1.80;85.70;;;;;;5014863;28;20046;-55
2021/01/15 00:53:13;;;;;;;12.02;8.50;;;1.70;85.40;;;;;;5015074;28;20053;-55
2021/01/15 00:55:38;;;;;;;13.38;8.50;;;1.80;85.40;;;;;;5015142;28;20042;-55
2021/01/15 00:58:04;;;;;;;14.30;8.93;;;1.80;85.90;;;;;;5014654;28;20046;-55
2021/01/15 01:00:30;;;;;;;14.00;8.52;;;1.80;86.00;;;;;;5014774;28;20049;-55
2021/01/15 01:02:56;;;;;;;16.75;9.25;;;1.80;86.30;;;;;;5014729;28;20050;-53
2021/01/15 01:05:24;;;;;;;12.82;8.50;;;1.80;85.90;;;;;;5014545;28;20042;-54
2021/01/15 01:07:50;;;;;;;10.55;7.90;;;1.80;86.10;;;;;;5014821;28;20099;-53
2021/01/15 01:10:17;;;;;;;15.32;9.77;;;1.80;86.40;;;;;;5014685;28;20049;-55
2021/01/15 01:12:44;;;;;;;12.98;8.27;;;1.80;86.00;;;;;;5014249;28;20045;-55
2021/01/15 01:15:14;;;;;;;15.40;8.52;;;1.80;87.00;;;;;;5014741;28;20439;-55
2021/01/15 01:17:40;;;;;;;11.73;8.63;;;1.80;86.10;;;;;;5013477;28;20115;-55
2021/01/15 01:20:09;;;;;;;10.77;8.13;;;1.80;85.20;;;;;;5014529;28;20091;-55
2021/01/15 01:22:35;;;;;;;10.63;7.88;;;1.80;84.80;;;;;;5014143;28;20500;-55
2021/01/15 01:25:01;;;;;;;11.05;7.70;;;1.80;85.00;;;;;;5014415;28;20091;-55
2021/01/15 01:27:27;;;;;;;11.10;7.50;;;1.90;83.60;;;;;;5014293;28;20077;-53
2021/01/15 01:29:53;;;;;;;10.40;7.28;;;1.80;80.50;;;;;;5014103;28;20127;-55
2021/01/15 01:32:18;;;;;;;11.77;8.38;;;1.80;81.70;;;;;;5014265;28;20511;-55
2021/01/15 01:34:44;;;;;;;9.55;7.30;;;1.90;81.20;;;;;;5013970;28;20049;-55
2021/01/15 01:37:10;;;;;;;11.05;7.60;;;2.00;81.90;;;;;;5014365;28;20096;-54
2021/01/15 01:39:36;;;;;;;9.88;7.15;;;2.00;81.20;;;;;;5014246;28;20053;-54
2021/01/15 01:42:02;;;;;;;12.65;8.10;;;2.00;81.10;;;;;;5014359;28;20068;-55
2021/01/15 01:44:28;;;;;;;10.48;6.80;;;2.10;79.80;;;;;;5013896;28;20404;-54
2021/01/15 01:46:55;;;;;;;9.88;6.72;;;2.00;80.40;;;;;;5013874;28;20453;-54
2021/01/15 01:49:21;;;;;;;10.10;7.28;;;2.00;79.70;;;;;;5013890;28;20469;-55
2021/01/15 01:51:51;;;;;;;9.27;7.03;;;2.00;78.40;;;;;;5013844;28;20058;-55
2021/01/15 01:54:18;;;;;;;9.82;7.13;;;2.00;79.30;;;;;;5013710;28;20080;-55
2021/01/15 01:56:43;;;;;;;8.90;6.90;;;2.10;78.50;;;;;;5013725;28;20054;-55
2021/01/15 01:59:12;;;;;;;9.40;6.78;;;2.10;78.90;;;;;;5013642;28;20046;-54
2021/01/15 02:01:38;;;;;;;9.38;7.05;;;2.20;78.10;;;;;;5013474;28;20125;-55
2021/01/15 02:04:05;;;;;;;9.35;7.03;;;2.20;77.70;;;;;;5013754;28;20128;-55
2021/01/15 02:06:34;;;;;;;11.20;7.35;;;2.20;79.80;;;;;;5013498;28;20587;-53
2021/01/15 02:09:08;;;;;;;8.98;6.90;;;2.20;80.00;;;;;;5013502;28;20100;-55
2021/01/15 02:11:33;;;;;;;9.43;7.40;;;2.20;78.90;;;;;;5013420;28;20050;-54
2021/01/15 02:14:23;;;;;;;11.52;7.30;;;2.20;81.10;;;;;;5013401;28;20599;-55
2021/01/15 02:16:52;;;;;;;10.18;7.40;;;2.20;79.20;;;;;;5013345;28;20042;-55
2021/01/15 02:19:42;;;;;;;11.40;7.88;;;2.20;79.40;;;;;;5013374;28;20133;-55
2021/01/15 02:22:22;;;;;;;10.48;7.80;;;2.20;79.40;;;;;;5013168;28;20377;-55
2021/01/15 02:25:02;;;;;;;10.85;7.88;;;2.20;80.30;;;;;;5012437;28;20045;-55
2021/01/15 02:27:28;;;;;;;;;;;2.20;81.40;;;;;;5013667;28;20049;-53
2021/01/15 02:30:15;;;;;;;15.32;8.00;;;2.20;81.80;;;;;;5013163;28;20012;-55
2021/01/15 02:33:03;;;;;;;12.30;7.82;;;2.20;81.80;;;;;;5013328;28;20080;-54
2021/01/15 02:35:53;;;;;;;10.63;7.53;;;2.10;81.70;;;;;;5013441;28;20073;-55
2021/01/15 02:38:34;;;;;;;11.07;7.50;;;2.10;82.10;;;;;;5013011;28;20402;-55
2021/01/15 02:41:26;;;;;;;10.27;7.32;;;2.20;80.80;;;;;;5012873;28;20140;-54
2021/01/15 02:43:59;;;;;;;10.10;7.57;;;2.20;80.90;;;;;;5012875;28;20518;-54
2021/01/15 02:46:49;;;;;;;12.00;7.25;;;2.20;80.70;;;;;;5012973;28;20042;-55
2021/01/15 02:49:15;;;;;;;11.18;8.32;;;2.20;82.20;;;;;;5012884;28;20050;-54
2021/01/15 02:51:41;;;;;;;10.60;8.20;;;2.10;81.70;;;;;;5012565;28;20042;-54
2021/01/15 02:54:07;;;;;;;12.95;8.60;;;2.10;82.40;;;;;;5012602;28;20125;-55
2021/01/15 02:56:33;;;;;;;11.75;8.35;;;2.10;83.20;;;;;;5012621;28;20037;-55
2021/01/15 02:58:59;;;;;;;11.05;7.75;;;2.10;83.40;;;;;;5012722;28;20535;-55
2021/01/15 03:01:30;;;;;;;11.75;8.65;;;2.10;84.00;;;;;;5012838;28;20133;-54
2021/01/15 03:04:15;;;;;;;10.18;7.88;;;2.00;84.00;;;;;;5012526;28;20050;-55
2021/01/15 03:06:54;;;;;;;12.02;8.55;;;2.00;84.80;;;;;;5012456;28;20476;-54
2021/01/15 03:09:22;;;;;;;12.45;8.35;;;2.00;84.20;;;;;;5012597;28;20074;-55
2021/01/15 03:11:51;;;;;;;11.20;8.25;;;2.00;84.60;;;;;;5012563;28;20088;-54
2021/01/15 03:14:19;;;;;;;11.25;8.32;;;2.00;84.50;;;;;;5012359;28;20447;-54
2021/01/15 03:16:46;;;;;;;13.02;8.15;;;2.00;85.00;;;;;;5012674;28;20049;-54
2021/01/15 03:19:12;;;;;;;10.75;8.63;;;2.00;84.50;;;;;;5012363;28;20100;-55
2021/01/15 03:21:39;;;;;;;12.20;9.05;;;2.00;83.80;;;;;;5012145;28;20050;-54
2021/01/15 03:24:06;;;;;;;11.77;8.32;;;2.00;84.20;;;;;;5012349;28;20046;-54
2021/01/15 03:26:32;;;;;;;12.68;9.32;;;2.00;84.70;;;;;;5012392;28;20385;-55
2021/01/15 03:28:58;;;;;;;13.75;9.75;;;2.00;84.90;;;;;;5012541;28;20048;-55
2021/01/15 03:31:24;;;;;;;11.02;8.65;;;1.90;84.60;;;;;;5012079;28;20050;-55
2021/01/15 03:33:49;;;;;;;13.00;8.52;;;1.90;83.90;;;;;;5012314;28;20125;-54
2021/01/15 03:36:16;;;;;;;14.00;8.93;;;1.90;85.10;;;;;;5012334;28;20145;-55
2021/01/15 03:38:43;;;;;;;13.30;9.65;;;1.90;85.20;;;;;;5012257;28;20146;-54
2021/01/15 03:41:09;;;;;;;11.00;8.77;;;1.90;85.20;;;;;;5012418;28;20068;-54
2021/01/15 03:43:35;;;;;;;12.70;9.00;;;1.90;85.20;;;;;;5012200;28;20476;-54
2021/01/15 03:46:01;;;;;;;10.95;8.45;;;1.90;85.50;;;;;;5011934;28;20054;-55
2021/01/15 03:48:27;;;;;;;14.07;9.65;;;1.90;84.20;;;;;;5012066;28;20383;-55
2021/01/15 03:50:53;;;;;;;12.10;8.98;;;1.90;85.20;;;;;;5011797;28;20045;-55
2021/01/15 03:53:19;;;;;;;14.07;9.18;;;1.90;85.70;;;;;;5012014;28;20042;-55
2021/01/15 03:55:44;;;;;;;11.05;9.23;;;1.90;85.30;;;;;;5011906;28;20037;-55
2021/01/15 03:58:10;;;;;;;13.05;9.27;;;1.90;83.40;;;;;;5011868;28;20076;-53
2021/01/15 04:00:36;;;;;;;11.43;8.63;;;1.90;85.50;;;;;;5011857;28;20054;-55
2021/01/15 04:03:02;;;;;;;11.27;8.80;;;1.90;85.30;;;;;;5011913;28;20504;-55
2021/01/15 04:05:29;;;;;;;11.75;8.63;;;1.90;86.40;;;;;;5011809;28;20564;-54
2021/01/15 04:07:55;;;;;;;12.45;8.90;;;1.90;85.90;;;;;;5011861;28;20069;-55
2021/01/15 04:10:20;;;;;;;13.45;8.93;;;1.90;85.90;;;;;;5011915;28;20046;-55
2021/01/15 04:12:46;;;;;;;15.23;9.45;;;1.90;85.90;;;;;;5012020;28;20120;-54
2021/01/15 04:15:14;;;;;;;10.90;8.13;;;1.80;86.70;;;;;;5012106;28;20069;-55
2021/01/15 04:17:40;;;;;;;13.93;9.32;;;1.90;87.20;;;;;;5012130;28;20052;-55
2021/01/15 04:20:08;;;;;;;13.32;9.32;;;1.90;85.50;;;;;;5012246;28;20488;-55
2021/01/15 04:22:38;;;;;;;14.07;9.60;;;1.80;86.80;;;;;;5011967;28;20115;-55
2021/01/15 04:25:05;;;;;;;13.25;9.40;;;1.80;88.00;;;;;;5011678;28;20056;-55
2021/01/15 04:27:33;;;;;;;11.25;8.20;;;1.80;87.90;;;;;;5011532;28;20061;-55
2021/01/15 04:30:04;;;;;;;10.73;8.85;;;1.80;86.90;;;;;;5011768;28;20050;-55
2021/01/15 04:32:30;;;;;;;13.30;9.35;;;1.80;87.70;;;;;;5011820;28;20046;-55
2021/01/15 04:34:56;;;;;;;13.27;9.35;;;1.80;86.40;;;;;;5011613;28;20407;-55
2021/01/15 04:37:22;;;;;;;13.77;9.63;;;1.70;86.40;;;;;;5011726;28;20053;-55
2021/01/15 04:39:47;;;;;;;13.32;9.63;;;1.80;86.70;;;;;;5011532;28;20041;-55
2021/01/15 04:42:15;;;;;;;13.93;9.80;;;1.80;87.00;;;;;;5011351;28;20077;-54
2021/01/15 04:44:42;;;;;;;14.93;10.63;;;1.80;86.70;;;;;;5011729;28;20400;-54
2021/01/15 04:47:09;;;;;;;14.70;9.80;;;1.80;86.20;;;;;;5011636;28;20053;-54
2021/01/15 04:49:38;;;;;;;14.73;9.60;;;1.80;85.80;;;;;;5015105;28;20046;-53
2021/01/15 04:52:09;;;;;;;14.18;10.30;;;1.80;86.10;;;;;;5015040;28;20076;-55
2021/01/15 04:54:38;;;;;;;15.48;9.98;;;1.90;86.40;;;;;;5014805;28;20041;-55
2021/01/15 04:57:11;;;;;;;14.33;9.77;;;1.80;86.00;;;;;;5015171;28;20084;-53
2021/01/15 04:59:48;;;;;;;14.15;10.07;;;1.80;86.60;;;;;;5014998;28;20137;-54
2021/01/15 05:02:16;;;;;;;15.07;9.68;;;1.80;87.60;;;;;;5014952;28;20057;-54
2021/01/15 05:04:43;;;;;;;14.05;10.13;;;1.80;87.40;;;;;;5014825;28;20631;-55
2021/01/15 05:07:13;;;;;;;15.73;9.50;;;1.80;86.60;;;;;;5014539;28;20450;-54
2021/01/15 05:09:47;;;;;;;17.52;9.57;;;1.80;86.80;;;;;;5014520;28;20412;-55
2021/01/15 05:12:18;;;;;;;12.43;9.52;;;1.80;87.70;;;;;;5014717;28;20046;-54
2021/01/15 05:14:50;;;;;;;14.45;10.02;;;1.80;87.90;;;;;;5014872;28;20161;-54
2021/01/15 05:17:17;;;;;;;11.80;9.02;;;1.80;88.40;;;;;;5014422;28;20399;-54
2021/01/15 05:19:43;;;;;;;13.55;9.63;;;1.80;88.40;;;;;;5014472;28;20141;-54
2021/01/15 05:22:13;;;;;;;14.70;9.68;;;1.80;88.00;;;;;;5014287;28;20416;-53
2021/01/15 05:24:40;;;;;;;13.57;10.20;;;1.80;87.60;;;;;;5014505;28;20061;-55
2021/01/15 05:30:14;;;;;;;13.27;9.05;;;1.70;88.50;;;;;;5014087;28;20049;-53
2021/01/15 05:32:40;;;;;;;12.57;9.20;;;1.70;89.90;;;;;;5014491;28;20045;-55
2021/01/15 05:35:06;;;;;;;12.90;9.23;;;1.70;89.90;;;;;;5014024;28;20399;-55
2021/01/15 05:37:33;;;;;;;13.63;9.68;;;1.70;88.90;;;;;;5014404;28;20129;-55
2021/01/15 05:39:59;;;;;;;13.55;9.77;;;1.80;89.30;;;;;;5014025;28;20046;-54
2021/01/15 05:42:25;;;;;;;13.73;10.00;;;1.80;88.80;;;;;;5013896;28;20069;-55
2021/01/15 05:44:51;;;;;;;13.93;10.00;;;1.70;88.00;;;;;;5014019;28;20049;-55
2021/01/15 05:47:18;;;;;;;10.50;8.40;;;1.70;89.10;;;;;;5014077;28;20054;-55
2021/01/15 05:49:56;;;;;;;15.77;9.73;;;1.80;88.40;;;;;;5014043;28;20053;-55
2021/01/15 05:52:22;;;;;;;14.00;9.80;;;1.80;89.00;;;;;;5013836;28;20208;-53
2021/01/15 05:54:54;;;;;;;15.30;9.82;;;1.80;88.60;;;;;;5013870;28;20050;-55
2021/01/15 05:57:26;;;;;;;13.73;9.82;;;1.70;89.10;;;;;;5013943;28;20055;-55
2021/01/15 05:59:52;;;;;;;14.13;9.00;;;1.70;89.10;;;;;;5012766;28;20799;-55
2021/01/15 06:02:18;;;;;;;14.13;9.23;;;1.80;89.40;;;;;;5014260;28;20057;-55
2021/01/15 06:04:44;;;;;;;19.38;10.25;;;1.80;90.00;;;;;;5013897;28;20500;-55
2021/01/15 06:07:09;;;;;;;11.95;9.52;;;1.80;90.00;;;;;;5013570;28;20053;-54
2021/01/15 06:09:39;;;;;;;12.57;9.38;;;1.80;88.90;;;;;;5013599;28;20439;-55
2021/01/15 06:12:14;;;;;;;12.32;9.45;;;1.80;88.70;;;;;;5012534;28;20515;-55
2021/01/15 06:14:49;;;;;;;12.77;9.55;;;1.90;89.20;;;;;;5013579;28;20042;-54
2021/01/15 06:17:20;;;;;;;12.02;8.77;;;1.90;89.20;;;;;;5013468;28;20041;-55
2021/01/15 06:19:49;;;;;;;12.82;8.98;;;1.90;90.00;;;;;;5013520;28;20092;-55
2021/01/15 06:22:32;;;;;;;14.50;9.68;;;1.90;90.30;;;;;;5013162;28;20058;-55
2021/01/15 06:25:10;;;;;;;14.93;9.90;;;1.90;90.20;;;;;;5013457;28;20069;-54
2021/01/15 06:27:40;;;;;;;13.45;9.60;;;1.90;90.60;;;;;;5013339;28;20057;-54
2021/01/15 06:30:12;;;;;;;11.25;8.73;;;1.90;90.30;;;;;;5013174;28;20041;-54
2021/01/15 06:32:39;;;;;;;14.32;9.40;;;1.80;90.70;;;;;;5013125;28;20050;-54
2021/01/15 06:35:06;;;;;;;12.13;9.18;;;1.80;90.70;;;;;;5013123;28;20502;-54
2021/01/15 06:37:34;;;;;;;10.43;8.45;;;1.80;90.50;;;;;;5013243;28;20400;-55
2021/01/15 06:40:08;;;;;;;10.98;8.32;;;1.90;90.70;;;;;;5013075;28;20049;-54
2021/01/15 06:42:47;;;;;;;12.50;8.50;;;1.90;90.40;;;;;;5013299;28;20050;-55
2021/01/15 06:45:15;;;;;;;12.05;8.23;;;1.90;90.60;;;;;;5012804;28;20057;-53
2021/01/15 06:47:46;;;;;;;15.07;8.98;;;1.80;90.50;;;;;;5013049;28;20054;-55
2021/01/15 06:50:17;;;;;;;11.10;8.50;;;1.90;90.60;;;;;;5012910;28;20046;-54
2021/01/15 06:52:48;;;;;;;10.77;7.60;;;1.90;90.50;;;;;;5013083;28;20111;-55
2021/01/15 06:55:18;;;;;;;11.50;7.85;;;1.90;90.70;;;;;;5012698;28;20488;-55
2021/01/15 06:58:00;;;;;;;10.32;7.25;;;1.90;90.80;;;;;;5012778;28;20049;-54
2021/01/15 07:00:33;;;;;;;12.30;6.63;;;1.80;91.10;;;;;;5012948;28;20053;-55
2021/01/15 07:03:23;;;;;;;9.80;6.53;;;1.90;91.30;;;;;;5012710;28;20060;-55
2021/01/15 07:05:49;;;;;;;9.43;5.88;;;1.90;91.40;;;;;;5012637;28;20056;-55
2021/01/15 07:08:15;;;;;;;7.47;5.75;;;1.90;91.40;;;;;;5012573;28;20042;-53
2021/01/15 07:10:41;;;;;;;8.70;5.63;;;1.90;91.40;;;;;;5012178;28;20052;-54
2021/01/15 07:13:10;;;;;;;7.28;5.53;;;1.90;91.50;;;;;;5012767;28;20073;-54
2021/01/15 07:15:42;;;;;;;7.30;5.32;;;1.90;91.80;;;;;;5012620;28;20046;-53
2021/01/15 07:18:33;;;;;;;7.95;5.20;;;1.90;91.20;;;;;;5012398;28;20100;-55
2021/01/15 07:21:08;;;;;;;7.85;4.88;;;1.90;92.00;;;;;;5012631;28;20052;-56
2021/01/15 07:23:51;;;;;;;6.47;5.00;;;1.90;91.60;;;;;;5012080;28;20443;-55
2021/01/15 07:26:18;;;;;;;6.88;5.18;;;1.90;91.50;;;;;;5012599;28;20042;-55
2021/01/15 07:28:46;;;;;;;9.65;5.20;;;1.80;91.60;;;;;;5012569;28;20073;-55
2021/01/15 07:31:22;;;;;;;6.70;4.90;;;1.90;91.60;;;;;;5012609;28;20050;-55
2021/01/15 07:33:58;;;;;;;6.90;5.25;;;1.90;91.60;;;;;;5012408;28;20045;-54
2021/01/15 07:36:35;;;;;;;5.82;4.68;;;1.90;91.50;;;;;;5012459;28;20103;-55
2021/01/15 07:39:23;;;;;;;6.80;5.20;;;1.90;91.60;;;;;;5012139;28;20123;-54
2021/01/15 07:41:53;;;;;;;7.35;4.75;;;2.00;91.40;;;;;;5008635;28;20499;-54
2021/01/15 07:44:22;;;;;;;8.07;5.43;;;2.00;91.50;;;;;;4986600;28;20072;-59
2021/01/15 07:46:55;;;;;;;;;;;1.90;91.40;;;;;;4998050;28;20081;-54
2021/01/15 07:49:22;;;;;;;9.32;6.40;;;1.90;91.80;;;;;;4992516;28;19922;-59
2021/01/15 07:52:07;;;;;;;9.00;5.63;;;1.90;91.40;;;;;;4987789;28;20046;-58
2021/01/15 07:54:51;;;;;;;6.30;4.72;;;1.90;91.70;;;;;;4992473;28;20067;-58
2021/01/15 07:57:19;;;;;;;9.20;5.22;;;2.00;91.20;;;;;;4992381;28;20053;-59
2021/01/15 07:59:46;;;;;;;7.53;5.25;;;1.90;91.30;;;;;;4992468;28;20042;-59
2021/01/15 08:02:16;;;;;;;8.20;5.50;;;2.00;91.30;;;;;;4992014;28;20489;-58
2021/01/15 08:04:41;;;;;;;5.72;4.75;;;1.90;91.20;;;;;;4992471;28;20046;-59
2021/01/15 08:07:12;;;;;;;7.75;5.13;;;1.90;91.20;;;;;;4992473;28;20057;-58
2021/01/15 08:09:42;;;;;;;9.63;5.13;;;1.90;91.20;;;;;;4992675;28;20078;-58
2021/01/15 08:12:08;;;;;;;7.43;5.78;;;2.00;91.20;;;;;;4992211;28;20057;-58
2021/01/15 08:14:34;;;;;;;7.05;5.28;;;2.00;91.10;;;;;;4992167;28;20042;-59
2021/01/15 08:17:00;;;;;;;7.82;5.22;;;2.00;91.00;;;;;;4992490;28;20048;-58
2021/01/15 08:19:27;;;;;;;10.43;5.70;;;2.00;91.00;;;;;;4992267;28;20105;-58
2021/01/15 08:21:54;;;;;;;9.05;6.13;;;2.00;90.90;;;;;;4992114;28;20058;-58
2021/01/15 08:24:22;;;;;;;8.23;5.93;;;2.00;91.10;;;;;;4995917;28;20125;-58
2021/01/15 08:26:52;;;;;;;9.13;5.70;;;2.10;91.00;;;;;;4996022;28;20046;-58
2021/01/15 08:29:19;;;;;;;9.77;6.18;;;2.00;91.20;;;;;;4995803;28;20038;-59
2021/01/15 08:31:48;;;;;;;10.45;6.95;;;2.10;91.00;;;;;;4996363;28;20082;-59
2021/01/15 08:34:21;;;;;;;10.43;6.00;;;2.10;91.10;;;;;;4996129;28;20070;-59
2021/01/15 08:36:55;;;;;;;9.52;5.93;;;2.10;91.00;;;;;;4995821;28;20050;-58
2021/01/15 08:39:21;;;;;;;8.88;5.90;;;2.10;91.10;;;;;;4995755;28;20491;-58
2021/01/15 08:41:56;;;;;;;8.75;5.45;;;2.10;91.20;;;;;;4995582;28;20043;-58
2021/01/15 08:44:23;;;;;;;9.98;6.50;;;2.00;91.20;;;;;;4996176;28;20042;-59
2021/01/15 08:46:53;;;;;;;8.68;6.35;;;2.00;91.30;;;;;;4995958;28;20380;-59
2021/01/15 08:49:19;;;;;;;7.18;5.90;;;2.00;91.30;;;;;;4995774;28;20096;-58
2021/01/15 08:51:50;;;;;;;7.72;5.47;;;2.10;91.30;;;;;;4995574;28;20130;-58
2021/01/15 08:54:18;;;;;;;7.32;5.68;;;2.10;91.00;;;;;;4995592;28;20104;-58
2021/01/15 08:56:48;;;;;;;9.68;6.72;;;2.10;91.00;;;;;;4995630;28;20038;-59
2021/01/15 08:59:30;;;;;;;8.18;6.45;;;2.10;90.90;;;;;;4995417;28;20491;-58
2021/01/15 09:02:01;;;;;;;10.30;6.22;;;2.10;90.70;;;;;;4995438;28;20047;-58
2021/01/15 09:04:34;;;;;;;9.35;6.45;;;2.10;90.50;;;;;;4995518;28;20049;-59
2021/01/15 09:07:04;;;;;;;8.07;5.90;;;2.20;90.50;;;;;;4995460;28;20473;-59
2021/01/15 09:09:31;;;;;;;8.93;6.20;;;2.10;90.50;;;;;;4995519;28;20073;-58
2021/01/15 09:12:08;;;;;;;9.65;6.40;;;2.20;90.40;;;;;;4988984;28;20053;-58
2021/01/15 09:14:37;;;;;;;7.97;5.63;;;2.20;90.30;;;;;;4994771;28;20042;-59
2021/01/15 09:17:05;;;;;;;9.52;5.03;;;2.20;90.20;;;;;;4997453;28;20053;-59
2021/01/15 09:19:32;;;;;;;7.53;5.53;;;2.20;89.80;;;;;;4996815;28;20523;-59
2021/01/15 09:22:00;;;;;;;21.13;6.20;;;2.20;89.60;;;;;;4995110;28;20054;-58
2021/01/15 09:24:28;;;;;;;17.90;7.38;;;2.20;89.40;;;;;;4997733;28;20049;-59
2021/01/15 09:27:02;;;;;;;14.13;6.63;;;2.30;88.70;;;;;;4994557;28;20141;-58
2021/01/15 09:29:29;;;;;;;13.00;5.90;;;2.30;88.50;;;;;;4995186;28;20065;-58
2021/01/15 09:31:55;;;;;;;17.60;7.40;;;2.30;88.70;;;;;;4994833;28;20489;-58
2021/01/15 09:34:22;;;;;;;10.15;5.53;;;2.30;88.20;;;;;;4994929;28;20097;-59
2021/01/15 09:36:50;;;;;;;11.63;5.60;;;2.30;87.60;;;;;;4994916;28;20073;-58
2021/01/15 09:39:16;;;;;;;9.70;5.70;;;2.30;87.20;;;;;;4994729;28;20541;-59
2021/01/15 09:41:56;;;;;;;7.22;5.45;;;2.40;86.60;;;;;;4994598;28;20054;-58
2021/01/15 09:44:24;;;;;;;9.75;5.95;;;2.30;86.00;;;;;;4993883;28;20108;-59
2021/01/15 09:46:54;;;;;;;9.70;5.20;;;2.40;84.40;;;;;;4995101;28;20038;-59
2021/01/15 09:49:20;;;;;;;10.18;4.72;;;2.40;84.70;;;;;;4994672;28;20069;-58
2021/01/15 09:51:49;;;;;;;10.38;5.07;;;2.40;84.10;;;;;;4994523;28;20051;-59
2021/01/15 09:54:15;;;;;;;7.25;4.90;;;2.40;83.90;;;;;;4994621;28;20046;-59
2021/01/15 09:56:41;;;;;;;8.73;5.07;;;2.40;83.30;;;;;;4994743;28;20412;-59
2021/01/15 09:59:08;;;;;;;7.72;5.30;;;2.50;84.50;;;;;;4994248;28;20046;-58
2021/01/15 10:01:34;;;;;;;9.63;5.30;;;2.50;84.30;;;;;;4994545;28;20550;-58
2021/01/15 10:04:00;;;;;;;7.75;5.07;;;2.50;83.30;;;;;;4994604;28;20042;-59
2021/01/15 10:06:27;;;;;;;9.93;4.93;;;2.40;83.60;;;;;;4994261;28;20133;-59
2021/01/15 10:08:58;;;;;;;9.07;5.38;;;2.40;82.10;;;;;;4994252;28;20492;-59
2021/01/15 10:11:29;;;;;;;8.82;4.72;;;2.50;81.70;;;;;;4994349;28;20042;-58
2021/01/15 10:14:06;;;;;;;8.30;5.07;;;2.40;80.50;;;;;;4994561;28;20050;-58
2021/01/15 10:16:36;;;;;;;8.55;5.30;;;2.50;80.80;;;;;;4994293;28;20042;-58
2021/01/15 10:19:02;;;;;;;7.43;5.55;;;2.50;80.90;;;;;;4992572;28;20141;-58
2021/01/15 10:21:28;;;;;;;8.10;5.68;;;2.50;81.00;;;;;;4993964;28;20064;-58
2021/01/15 10:23:58;;;;;;;7.88;5.28;;;2.50;80.90;;;;;;4994270;28;20050;-59
2021/01/15 10:26:30;;;;;;;9.63;5.53;;;2.50;81.60;;;;;;4994056;28;20049;-58
2021/01/15 10:29:02;;;;;;;8.18;5.60;;;2.40;80.60;;;;;;4994160;28;20046;-58
2021/01/15 10:31:32;;;;;;;7.90;5.68;;;2.50;80.90;;;;;;4994064;28;20042;-58
2021/01/15 10:33:59;;;;;;;9.95;6.40;;;2.50;80.90;;;;;;4993984;28;20436;-58
2021/01/15 10:36:26;;;;;;;10.73;6.30;;;2.60;81.70;;;;;;4993782;28;20488;-59
2021/01/15 10:38:52;;;;;;;9.15;6.18;;;2.50;81.20;;;;;;4993716;28;20042;-58
2021/01/15 10:41:38;;;;;;;11.90;6.10;;;2.50;80.90;;;;;;4993713;28;20058;-59
2021/01/15 10:44:06;;;;;;;10.30;6.35;;;2.50;80.20;;;;;;4994053;28;20053;-58
2021/01/15 10:46:40;;;;;;;6.55;5.38;;;2.60;80.90;;;;;;4993131;28;20096;-59
2021/01/15 10:49:07;;;;;;;9.30;5.90;;;2.60;79.00;;;;;;4993676;28;20042;-59
2021/01/15 10:51:33;;;;;;;9.27;5.70;;;2.60;79.80;;;;;;4993658;28;20053;-58
2021/01/15 10:54:00;;;;;;;9.20;6.00;;;2.60;79.30;;;;;;4993107;28;20050;-59
2021/01/15 10:56:37;;;;;;;10.68;5.63;;;2.60;79.90;;;;;;4993485;28;20050;-59
2021/01/15 10:59:03;;;;;;;10.77;6.72;;;2.70;79.30;;;;;;4992822;28;20116;-58
2021/01/15 11:01:39;;;;;;;7.78;5.85;;;2.70;78.80;;;;;;4993418;28;20050;-58
2021/01/15 11:04:06;;;;;;;8.38;5.72;;;2.70;78.80;;;;;;4993365;28;20089;-58
2021/01/15 11:06:37;;;;;;;8.23;5.93;;;2.60;78.80;;;;;;4993523;28;20050;-59
2021/01/15 11:09:04;;;;;;;9.50;5.43;;;2.70;79.00;;;;;;4992973;28;20125;-59
2021/01/15 11:11:30;;;;;;;10.45;5.70;;;2.70;77.10;;;;;;4993365;28;20053;-58
2021/01/15 11:13:56;;;;;;;9.88;5.93;;;2.50;75.50;;;;;;4991597;28;20046;-59
2021/01/15 11:16:24;;;;;;;8.05;5.97;;;2.60;76.50;;;;;;4993024;28;20042;-59
2021/01/15 11:18:50;;;;;;;8.98;5.93;;;2.60;77.70;;;;;;4992848;28;20034;-58
2021/01/15 11:21:26;;;;;;;9.35;5.72;;;2.60;77.00;;;;;;4993981;28;20166;-58
2021/01/15 11:23:53;;;;;;;9.43;5.50;;;2.60;75.50;;;;;;4993433;28;20054;-58
2021/01/15 11:26:32;;;;;;;8.65;5.80;;;2.50;74.90;;;;;;4992851;28;20073;-59
2021/01/15 11:29:00;;;;;;;11.43;6.05;;;2.50;76.10;;;;;;4992834;28;20074;-58
2021/01/15 11:31:26;;;;;;;7.90;5.90;;;2.60;76.70;;;;;;4992515;28;20098;-59
2021/01/15 11:33:53;;;;;;;8.85;5.72;;;2.50;76.30;;;;;;4992761;28;20050;-58
2021/01/15 11:36:19;;;;;;;11.63;6.38;;;2.60;76.90;;;;;;4992791;28;20046;-59
2021/01/15 11:38:45;;;;;;;10.27;6.43;;;2.60;77.20;;;;;;4992398;28;20048;-59
2021/01/15 11:41:14;;;;;;;9.85;6.18;;;2.60;77.50;;;;;;4992749;28;20121;-59
2021/01/15 11:43:40;;;;;;;11.87;6.27;;;2.60;76.40;;;;;;5004567;28;20045;-58
2021/01/15 11:46:07;;;;;;;10.68;6.07;;;2.60;76.50;;;;;;5012339;28;20054;-59
2021/01/15 11:48:33;;;;;;;9.10;5.80;;;2.60;77.00;;;;;;5012040;28;20050;-59
2021/01/15 11:51:00;;;;;;;8.93;6.30;;;2.60;76.70;;;;;;5012211;28;20100;-59
2021/01/15 11:53:26;;;;;;;11.77;6.30;;;2.60;76.00;;;;;;5011454;28;20057;-59
2021/01/15 11:55:54;;;;;;;7.85;5.53;;;2.60;76.20;;;;;;5009485;28;20054;-59
2021/01/15 11:58:24;;;;;;;15.43;6.18;;;2.50;74.20;;;;;;5016099;28;20046;-58
2021/01/15 12:00:50;;;;;;;9.32;5.43;;;2.50;75.40;;;;;;5015949;28;20045;-58
2021/01/15 12:03:16;;;;;;;9.77;6.60;;;2.50;75.70;;;;;;5016150;28;20053;-58
2021/01/15 12:05:51;;;;;;;10.02;6.07;;;2.50;76.90;;;;;;5016097;28;20038;-58
2021/01/15 12:08:22;;;;;;;8.05;5.57;;;2.60;77.50;;;;;;5016189;28;20046;-59
2021/01/15 12:10:49;;;;;;;8.02;5.60;;;2.50;74.50;;;;;;5015814;28;20053;-59
2021/01/15 12:13:15;;;;;;;7.78;5.47;;;2.50;76.40;;;;;;5015890;28;20046;-58
2021/01/15 12:15:41;;;;;;;10.93;5.68;;;2.50;74.50;;;;;;5015879;28;20095;-59
2021/01/15 12:18:07;;;;;;;10.02;6.78;;;2.50;75.10;;;;;;5015830;28;20045;-59
2021/01/15 12:20:39;;;;;;;8.00;6.25;;;2.50;75.40;;;;;;5015535;28;20049;-59
2021/01/15 12:23:05;;;;;;;10.27;6.97;;;2.60;75.80;;;;;;5014405;28;20053;-59
2021/01/15 12:25:31;;;;;;;9.13;7.00;;;2.60;76.10;;;;;;5014750;28;20050;-59
2021/01/15 12:27:56;;;;;;;11.35;6.25;;;2.60;76.80;;;;;;5008079;28;20399;-59
2021/01/15 12:30:23;;;;;;;8.38;5.72;;;2.70;75.80;;;;;;4995842;28;20054;-59
2021/01/15 12:32:50;;;;;;;12.63;6.60;;;2.70;74.00;;;;;;4995805;28;20066;-58
2021/01/15 12:35:19;;;;;;;11.13;6.20;;;2.70;75.10;;;;;;4995569;28;20473;-59
2021/01/15 12:37:45;;;;;;;9.85;5.90;;;2.60;74.80;;;;;;4995851;28;20049;-58
2021/01/15 12:40:12;;;;;;;8.20;5.93;;;2.60;73.60;;;;;;4995946;28;20042;-59
2021/01/15 12:42:38;;;;;;;8.82;5.50;;;2.60;74.10;;;;;;4995934;28;20054;-59
2021/01/15 12:45:05;;;;;;;10.32;5.95;;;2.60;74.20;;;;;;4993856;28;20050;-59
2021/01/15 12:47:31;;;;;;;8.82;5.78;;;2.50;73.60;;;;;;4995314;28;20073;-59
2021/01/15 12:49:56;;;;;;;6.22;4.80;;;2.40;73.40;;;;;;4995697;28;20465;-59
2021/01/15 12:52:22;;;;;;;7.55;5.55;;;2.40;73.80;;;;;;4995587;28;20481;-58
2021/01/15 12:54:48;;;;;;;7.03;5.18;;;2.50;73.80;;;;;;4995389;28;20486;-59
2021/01/15 12:57:14;;;;;;;7.07;5.22;;;2.50;73.20;;;;;;4995625;28;20051;-59
2021/01/15 12:59:40;;;;;;;10.57;6.22;;;2.50;72.70;;;;;;4995569;28;20044;-59
2021/01/15 13:02:08;;;;;;;12.45;5.93;;;2.50;74.00;;;;;;4995537;28;20058;-59
2021/01/15 13:04:34;;;;;;;8.77;5.28;;;2.60;74.10;;;;;;4995131;28;20042;-59